createdAt,value
2019-03-29T00:00:15.834Z,5.14
2019-03-29T00:05:24.917Z,5.07
2019-03-29T00:10:34.013Z,4.42
2019-03-29T00:15:43.054Z,4.66
2019-03-29T00:20:52.229Z,4.61
2019-03-29T00:26:01.278Z,4.66
2019-03-29T00:31:10.993Z,4.30
2019-03-29T00:36:20.091Z,4.49
2019-03-29T00:41:29.330Z,4.16
2019-03-29T00:46:38.389Z,4.27
2019-03-29T00:51:47.525Z,4.64
2019-03-29T00:56:56.606Z,4.84
2019-03-29T01:02:05.778Z,4.28
2019-03-29T01:07:14.873Z,4.44
2019-03-29T01:12:24.352Z,4.82
2019-03-29T01:17:33.400Z,4.85
2019-03-29T01:22:42.686Z,5.52
2019-03-29T01:27:51.795Z,4.26
2019-03-29T01:33:00.955Z,4.75
2019-03-29T01:38:21.223Z,4.53
2019-03-29T01:43:18.622Z,4.28
2019-03-29T01:48:27.642Z,4.40
2019-03-29T01:53:37.279Z,5.36
2019-03-29T01:58:45.458Z,4.48
2019-03-29T02:03:54.686Z,5.10
2019-03-29T02:09:04.962Z,5.20
2019-03-29T02:14:12.361Z,5.44
2019-03-29T02:19:21.409Z,4.90
2019-03-29T02:24:30.554Z,5.29
2019-03-29T02:29:39.628Z,5.10
2019-03-29T02:34:48.705Z,5.12
2019-03-29T02:39:57.707Z,4.59
2019-03-29T02:45:06.838Z,5.17
2019-03-29T02:50:16.010Z,5.06
2019-03-29T02:55:25.002Z,5.01
2019-03-29T03:00:34.052Z,4.64
2019-03-29T03:05:43.230Z,5.59
2019-03-29T03:10:52.279Z,5.39
2019-03-29T03:16:01.401Z,4.87
2019-03-29T03:21:10.750Z,5.44
2019-03-29T03:26:19.978Z,5.09
2019-03-29T03:31:29.058Z,4.39
2019-03-29T03:36:38.167Z,5.68
2019-03-29T03:41:47.183Z,5.83
2019-03-29T03:46:56.333Z,5.99
2019-03-29T03:52:05.383Z,5.43
2019-03-29T03:57:14.549Z,5.11
2019-03-29T04:02:23.566Z,4.98
2019-03-29T04:07:32.740Z,6.03
2019-03-29T04:12:41.786Z,6.28
2019-03-29T04:17:50.887Z,6.64
2019-03-29T04:22:59.925Z,5.37
2019-03-29T04:28:09.065Z,5.69
2019-03-29T04:33:18.152Z,5.42
2019-03-29T04:38:27.386Z,5.31
2019-03-29T04:43:36.442Z,5.41
2019-03-29T04:48:45.551Z,5.34
2019-03-29T04:53:54.585Z,4.91
2019-03-29T04:59:03.910Z,4.82
2019-03-29T05:04:12.943Z,4.71
2019-03-29T05:09:22.094Z,5.09
2019-03-29T05:14:31.194Z,5.68
2019-03-29T05:19:40.370Z,4.90
2019-03-29T05:24:49.446Z,4.80
2019-03-29T05:29:58.626Z,5.67
2019-03-29T05:35:07.729Z,4.83
2019-03-29T05:40:16.859Z,4.83
2019-03-29T05:45:25.937Z,4.99
2019-03-29T05:50:36.814Z,5.11
2019-03-29T05:55:43.614Z,5.52
2019-03-29T06:00:53.279Z,4.62
2019-03-29T06:06:02.332Z,4.64
2019-03-29T06:11:11.518Z,4.28
2019-03-29T06:16:20.587Z,4.09
2019-03-29T06:21:29.708Z,3.89
2019-03-29T06:26:38.781Z,4.55
2019-03-29T06:31:47.890Z,4.52
2019-03-29T06:36:56.917Z,4.32
2019-03-29T06:42:06.039Z,3.69
2019-03-29T06:47:15.129Z,3.39
2019-03-29T06:52:24.237Z,3.83
2019-03-29T06:57:33.265Z,4.07
2019-03-29T07:02:42.467Z,4.32
2019-03-29T07:07:51.545Z,4.08
2019-03-29T07:13:00.668Z,3.47
2019-03-29T07:18:09.721Z,4.01
2019-03-29T07:23:19.187Z,3.93
2019-03-29T07:28:28.273Z,4.13
2019-03-29T07:33:37.482Z,3.72
2019-03-29T07:38:46.533Z,3.71
2019-03-29T07:43:55.645Z,3.95
2019-03-29T07:49:04.694Z,3.72
2019-03-29T07:54:13.786Z,3.41
2019-03-29T07:59:23.323Z,3.44
2019-03-29T08:04:31.545Z,3.67
2019-03-29T08:09:40.589Z,3.48
2019-03-29T08:14:49.707Z,2.99
2019-03-29T08:20:35.869Z,3.19
2019-03-29T08:25:07.497Z,3.35
2019-03-29T08:30:16.594Z,3.72
2019-03-29T08:35:25.763Z,3.60
2019-03-29T08:40:34.899Z,3.26
2019-03-29T08:45:44.064Z,3.36
2019-03-29T08:50:53.110Z,3.29
2019-03-29T08:56:02.296Z,3.52
2019-03-29T09:01:11.382Z,3.67
2019-03-29T09:06:21.081Z,3.91
2019-03-29T09:11:30.125Z,4.36
2019-03-29T09:16:39.243Z,3.82
2019-03-29T09:21:48.429Z,3.85
2019-03-29T09:26:57.638Z,4.98
2019-03-29T09:32:06.700Z,4.67
2019-03-29T09:37:15.939Z,4.55
2019-03-29T09:42:29.553Z,4.86
2019-03-29T09:47:38.551Z,5.21
2019-03-29T09:52:42.223Z,5.66
2019-03-29T09:57:51.322Z,5.33
2019-03-29T10:03:00.488Z,5.11
2019-03-29T10:08:09.747Z,5.24
2019-03-29T10:13:18.933Z,5.54
2019-03-29T10:18:28.039Z,6.22
2019-03-29T10:23:37.105Z,6.23
2019-03-29T10:28:46.211Z,6.35
2019-03-29T10:33:55.310Z,6.16
2019-03-29T10:39:04.422Z,5.70
2019-03-29T10:44:13.430Z,5.72
2019-03-29T10:49:23.349Z,5.58
2019-03-29T10:54:32.431Z,5.31
2019-03-29T10:59:41.598Z,6.25
2019-03-29T11:04:50.702Z,5.33
2019-03-29T11:09:59.921Z,5.31
2019-03-29T11:15:09.039Z,5.06
2019-03-29T11:20:18.777Z,5.79
2019-03-29T11:25:26.805Z,5.81
2019-03-29T11:30:42.650Z,5.26
2019-03-29T11:35:44.566Z,5.72
2019-03-29T11:40:53.684Z,5.24
2019-03-29T11:46:02.728Z,6.37
2019-03-29T11:51:19.070Z,6.22
2019-03-29T11:56:20.392Z,6.14
2019-03-29T12:01:29.514Z,5.85
2019-03-29T12:06:38.583Z,6.61
2019-03-29T12:11:47.741Z,6.37
2019-03-29T12:16:56.802Z,5.83
2019-03-29T12:22:05.918Z,5.80
2019-03-29T12:27:15.007Z,5.47
2019-03-29T12:32:24.642Z,5.49
2019-03-29T12:37:33.676Z,4.77
2019-03-29T12:42:42.826Z,5.70
2019-03-29T12:47:51.890Z,5.05
2019-03-29T12:53:01.110Z,4.49
2019-03-29T12:58:10.227Z,4.23
2019-03-29T13:03:20.107Z,3.58
2019-03-29T13:08:29.147Z,3.95
2019-03-29T13:13:38.270Z,3.63
2019-03-29T13:18:47.297Z,4.32
2019-03-29T13:23:56.477Z,4.12
2019-03-29T13:29:05.557Z,4.18
2019-03-29T13:34:14.676Z,4.74
2019-03-29T13:39:23.728Z,4.85
2019-03-29T13:44:32.928Z,4.90
2019-03-29T13:49:42.118Z,5.60
2019-03-29T13:54:51.365Z,3.12
2019-03-29T14:00:00.541Z,1.76
2019-03-29T14:05:09.775Z,1.07
2019-03-29T14:10:18.838Z,0.75
2019-03-29T14:15:27.956Z,0.73
2019-03-29T14:20:37.010Z,1.34
2019-03-29T14:25:46.126Z,1.26
2019-03-29T14:30:55.182Z,0.64
2019-03-29T14:36:04.289Z,0.66
2019-03-29T14:41:13.370Z,0.57
2019-03-29T14:46:23.302Z,0.62
2019-03-29T14:51:32.405Z,0.86
2019-03-29T14:56:41.550Z,0.75
2019-03-29T15:01:50.552Z,0.45
2019-03-29T15:06:59.690Z,0.66
2019-03-29T15:12:08.763Z,0.56
2019-03-29T15:17:21.245Z,0.57
2019-03-29T15:22:26.762Z,0.76
2019-03-29T15:27:35.870Z,0.66
2019-03-29T15:32:44.919Z,0.87
2019-03-29T15:37:54.234Z,1.65
2019-03-29T15:43:03.270Z,1.51
2019-03-29T15:48:12.430Z,1.39
2019-03-29T15:53:21.490Z,1.49
2019-03-29T15:58:30.662Z,1.60
2019-03-29T16:03:39.721Z,1.52
2019-03-29T16:08:48.885Z,1.40
2019-03-29T16:13:57.925Z,1.33
2019-03-29T16:19:07.087Z,1.10
2019-03-29T16:24:16.090Z,1.11
2019-03-29T16:29:23.785Z,1.24
2019-03-29T16:34:32.989Z,1.34
2019-03-29T16:39:42.211Z,1.19
2019-03-29T16:45:47.166Z,1.64
2019-03-29T16:50:24.991Z,1.56
2019-03-29T16:55:34.170Z,1.67
2019-03-29T17:00:43.269Z,1.81
2019-03-29T17:05:52.343Z,1.52
2019-03-29T17:11:01.375Z,1.43
2019-03-29T17:16:10.611Z,1.59
2019-03-29T17:21:19.842Z,3.00
2019-03-29T17:26:29.157Z,7.18
2019-03-29T17:31:38.209Z,4.97
2019-03-29T17:36:47.374Z,5.30
2019-03-29T17:41:56.474Z,2.41
2019-03-29T17:47:05.553Z,2.12
2019-03-29T17:52:14.590Z,1.95
2019-03-29T17:57:23.778Z,1.49
2019-03-29T18:02:32.985Z,1.57
2019-03-29T18:07:42.115Z,1.35
2019-03-29T18:12:51.203Z,1.63
2019-03-29T18:18:00.424Z,1.30
2019-03-29T18:23:09.521Z,1.26
2019-03-29T18:28:18.681Z,0.90
2019-03-29T18:33:27.738Z,1.78
2019-03-29T18:38:36.925Z,1.37
2019-03-29T18:43:46.138Z,1.26
2019-03-29T18:48:55.589Z,2.46
2019-03-29T18:54:04.665Z,5.68
2019-03-29T18:59:13.834Z,5.78
2019-03-29T19:04:22.902Z,4.49
2019-03-29T19:09:32.002Z,1.87
2019-03-29T19:14:41.757Z,1.98
2019-03-29T19:19:49.713Z,1.56
2019-03-29T19:24:58.819Z,1.60
2019-03-29T19:30:07.947Z,1.64
2019-03-29T19:35:17.034Z,1.69
2019-03-29T19:40:26.198Z,2.02
2019-03-29T19:45:35.207Z,1.58
2019-03-29T19:50:44.374Z,1.35
2019-03-29T19:55:53.449Z,1.87
2019-03-29T20:01:06.782Z,2.58
2019-03-29T20:06:05.877Z,2.12
2019-03-29T20:11:14.969Z,1.81
2019-03-29T20:16:24.002Z,2.15
2019-03-29T20:21:33.340Z,2.16
2019-03-29T20:26:42.425Z,2.01
2019-03-29T20:31:51.556Z,2.52
2019-03-29T20:37:00.647Z,2.12
2019-03-29T20:42:09.801Z,2.37
2019-03-29T20:47:18.857Z,2.07
2019-03-29T20:52:28.023Z,2.23
2019-03-29T20:57:37.069Z,2.46
2019-03-29T21:02:46.291Z,2.67
2019-03-29T21:07:55.261Z,2.34
2019-03-29T21:13:07.075Z,2.43
2019-03-29T21:18:12.969Z,1.59
2019-03-29T21:23:22.316Z,1.55
2019-03-29T21:28:34.821Z,1.68
2019-03-29T21:33:40.839Z,2.15
2019-03-29T21:38:48.727Z,1.61
2019-03-29T21:43:57.851Z,1.60
2019-03-29T21:49:06.940Z,1.58
2019-03-29T21:54:16.040Z,1.62
2019-03-29T21:59:25.298Z,1.29
2019-03-29T22:04:34.229Z,1.45
2019-03-29T22:09:43.326Z,1.64
2019-03-29T22:14:52.446Z,1.81
2019-03-29T22:20:01.491Z,1.72
2019-03-29T22:25:10.618Z,1.36
2019-03-29T22:30:19.669Z,1.62
2019-03-29T22:35:28.779Z,2.29
2019-03-29T22:40:37.865Z,2.03
2019-03-29T22:45:47.360Z,2.12
2019-03-29T22:50:56.382Z,1.58
2019-03-29T22:56:05.510Z,2.40
2019-03-29T23:01:14.562Z,2.71
2019-03-29T23:06:23.725Z,3.09
2019-03-29T23:11:32.770Z,3.09
2019-03-29T23:16:41.958Z,2.62
2019-03-29T23:21:51.027Z,2.55
2019-03-29T23:27:00.177Z,3.03
2019-03-29T23:32:11.241Z,2.75
2019-03-29T23:37:10.413Z,3.42
2019-03-29T23:42:19.490Z,3.53
2019-03-29T23:47:28.680Z,3.34
2019-03-29T23:52:37.745Z,3.37
2019-03-29T23:57:46.949Z,2.91
